Time;durP1;ratioP1;P1;durP2;ratioP2;P2;SDS_P1;SDS_P2;PMS_P1;PMS_P2;Temp;Humidity;BMP_temperature;BMP_pressure;BME280_temperature;BME280_humidity;BME280_pressure;Samples;Min_cycle;Max_cycle;Signal;HPM_P1;HPM_P2
2022/01/12 00:01:37;;;;;;;260.63;71.50;;;4.10;98.10;;;;;;5122463;27;20038;-82
2022/01/12 00:04:03;;;;;;;255.15;65.03;;;4.10;98.10;;;;;;5122294;27;20097;-82
2022/01/12 00:06:29;;;;;;;277.08;61.90;;;4.10;98.20;;;;;;5139055;27;20525;-82
2022/01/12 00:08:55;;;;;;;247.18;63.13;;;4.20;98.20;;;;;;5121939;27;20035;-81
2022/01/12 00:11:22;;;;;;;344.10;83.80;;;4.20;98.40;;;;;;5105114;27;20042;-81
2022/01/12 00:13:51;;;;;;;268.65;62.22;;;4.10;98.30;;;;;;5159138;27;20362;-82
2022/01/12 00:16:18;;;;;;;215.43;57.58;;;4.20;98.20;;;;;;5142689;27;20043;-82
2022/01/12 00:18:45;;;;;;;243.52;64.72;;;4.20;98.20;;;;;;5143093;27;20155;-81
2022/01/12 00:21:12;;;;;;;338.05;71.85;;;4.20;98.20;;;;;;5143005;27;20038;-82
2022/01/12 00:23:39;;;;;;;313.05;69.80;;;4.20;98.40;;;;;;5159879;27;20042;-82
2022/01/12 00:26:09;;;;;;;308.80;68.43;;;4.20;98.20;;;;;;5143206;27;20117;-82
2022/01/12 00:34:06;;;;;;;;;;;4.30;98.20;;;;;;5160441;27;20050;-81
2022/01/12 00:36:32;;;;;;;248.20;60.88;;;4.30;98.30;;;;;;5142263;27;19919;-82
2022/01/12 00:38:59;;;;;;;338.63;66.78;;;4.30;98.30;;;;;;5142377;27;20477;-82
2022/01/12 00:41:26;;;;;;;362.08;70.32;;;4.30;98.40;;;;;;5142430;27;20397;-81
2022/01/12 00:43:58;;;;;;;364.77;68.25;;;4.30;98.30;;;;;;5159618;27;20049;-82
2022/01/12 00:46:26;;;;;;;343.02;69.95;;;4.20;98.40;;;;;;5143079;27;20121;-82
2022/01/12 00:48:54;;;;;;;277.35;70.05;;;4.30;98.50;;;;;;5159434;27;20094;-82
2022/01/12 00:51:20;;;;;;;305.98;65.20;;;4.20;98.40;;;;;;5159691;27;20042;-81
2022/01/12 00:53:46;;;;;;;329.23;66.93;;;4.20;98.40;;;;;;5142061;27;20497;-82
2022/01/12 00:56:11;;;;;;;413.17;72.95;;;4.30;98.30;;;;;;5124789;27;20086;-81
2022/01/12 00:58:37;;;;;;;286.42;62.58;;;4.30;98.50;;;;;;5142097;27;20034;-81
2022/01/12 01:01:04;;;;;;;237.77;58.67;;;4.20;98.50;;;;;;5124930;27;20038;-81
2022/01/12 01:03:30;;;;;;;379.58;73.85;;;4.30;98.40;;;;;;5159233;27;20125;-82
2022/01/12 01:05:57;;;;;;;249.57;57.90;;;4.30;98.40;;;;;;5159397;27;20121;-82
2022/01/12 01:08:23;;;;;;;372.92;72.72;;;4.30;98.40;;;;;;5159079;27;20034;-82
2022/01/12 01:10:51;;;;;;;286.73;65.40;;;4.30;98.40;;;;;;5159087;27;20034;-82
2022/01/12 01:13:25;;;;;;;362.40;72.10;;;4.40;98.40;;;;;;5142261;27;20386;-82
2022/01/12 01:16:08;;;;;;;284.83;63.65;;;4.30;98.40;;;;;;5141762;27;20506;-81
2022/01/12 01:26:49;;;;;;;256.15;61.22;;;4.40;98.40;;;;;;5144090;27;20046;-82
2022/01/12 01:29:15;;;;;;;222.23;53.33;;;4.40;98.40;;;;;;5158645;27;20129;-81
2022/01/12 01:31:43;;;;;;;240.18;56.90;;;4.40;98.30;;;;;;5158493;27;20093;-81
2022/01/12 01:34:12;;;;;;;260.92;62.20;;;4.40;98.40;;;;;;5158918;27;20057;-82
2022/01/12 01:36:40;;;;;;;279.63;60.10;;;4.40;98.40;;;;;;5141739;27;20484;-82
2022/01/12 01:39:08;;;;;;;267.63;61.95;;;4.40;98.40;;;;;;5141562;27;20069;-82
2022/01/12 01:41:35;;;;;;;193.10;50.47;;;4.40;98.40;;;;;;5124337;27;20114;-82
2022/01/12 01:44:31;;;;;;;271.98;61.83;;;4.40;98.40;;;;;;5158391;27;20034;-82
2022/01/12 01:55:07;;;;;;;184.18;50.17;;;4.40;98.50;;;;;;5157814;27;20045;-82
2022/01/12 01:57:34;;;;;;;121.35;39.13;;;4.40;98.50;;;;;;5124258;27;20446;-82
2022/01/12 02:00:00;;;;;;;122.13;38.85;;;4.50;98.50;;;;;;5158193;27;20038;-82
2022/01/12 02:02:27;;;;;;;124.97;36.50;;;4.50;98.50;;;;;;5158029;27;20045;-82
2022/01/12 02:04:53;;;;;;;106.05;34.15;;;4.60;98.50;;;;;;5157964;27;20125;-82
2022/01/12 02:07:18;;;;;;;105.47;30.73;;;4.60;98.50;;;;;;5141021;27;20121;-82
2022/01/12 02:09:44;;;;;;;89.95;29.55;;;4.60;98.50;;;;;;5140620;27;20034;-82
2022/01/12 02:12:12;;;;;;;85.43;28.25;;;4.60;98.50;;;;;;5123527;27;20042;-82
2022/01/12 02:14:38;;;;;;;99.53;27.80;;;4.60;98.50;;;;;;5157786;27;20048;-82
2022/01/12 02:17:15;;;;;;;106.75;30.27;;;4.60;98.50;;;;;;5140394;27;20038;-82
2022/01/12 02:36:23;;;;;;;88.38;24.05;;;3.80;98.20;;;;;;5141991;27;20042;-82
2022/01/12 02:41:34;;;;;;;68.65;23.08;;;3.60;98.10;;;;;;5157674;27;20038;-82
2022/01/12 02:54:51;;;;;;;88.95;23.65;;;3.30;98.20;;;;;;5140476;27;20513;-81
2022/01/12 02:57:17;;;;;;;60.63;20.70;;;3.10;98.10;;;;;;5140084;27;20092;-81
2022/01/12 03:02:30;;;;;;;83.50;23.50;;;3.00;98.10;;;;;;5157350;27;20053;-82
2022/01/12 03:07:36;;;;;;;;;;;2.90;98.10;;;;;;5157187;27;20497;-81
2022/01/12 03:10:04;;;;;;;61.40;20.10;;;2.90;98.10;;;;;;5156978;27;19915;-81
2022/01/12 03:12:30;;;;;;;76.72;22.58;;;2.80;98.10;;;;;;5156912;27;20034;-81
2022/01/12 03:14:55;;;;;;;87.22;24.42;;;2.80;98.10;;;;;;5105404;27;20041;-81
2022/01/12 03:17:21;;;;;;;207.60;34.53;;;2.70;98.10;;;;;;5122531;27;20066;-81
2022/01/12 03:19:47;;;;;;;142.85;27.67;;;2.70;98.20;;;;;;5122722;27;20038;-81
2022/01/12 03:22:13;;;;;;;283.05;39.88;;;2.60;98.10;;;;;;5157082;27;20468;-82
2022/01/12 03:24:38;;;;;;;404.60;50.75;;;2.60;98.20;;;;;;5156483;27;20065;-81
2022/01/12 03:27:06;;;;;;;317.25;38.42;;;2.60;98.20;;;;;;5139805;27;20081;-81
2022/01/12 03:29:32;;;;;;;130.80;25.63;;;2.60;98.20;;;;;;5156977;27;20035;-81
2022/01/12 03:32:00;;;;;;;43.20;16.05;;;2.60;98.20;;;;;;5139429;27;20050;-81
2022/01/12 03:34:30;;;;;;;204.55;30.55;;;2.60;98.30;;;;;;5122541;27;20418;-81
2022/01/12 03:39:41;;;;;;;;;;;2.60;98.20;;;;;;5157461;27;20408;-81
2022/01/12 03:42:07;;;;;;;136.55;22.63;;;2.40;98.20;;;;;;5156639;27;19921;-81
2022/01/12 03:44:32;;;;;;;54.20;13.52;;;2.40;98.20;;;;;;5122021;27;20035;-81
2022/01/12 03:46:58;;;;;;;121.47;19.10;;;2.40;98.20;;;;;;5106589;27;20053;-81
2022/01/12 03:49:24;;;;;;;84.93;14.50;;;2.40;98.20;;;;;;5126362;27;20041;-81
2022/01/12 03:51:50;;;;;;;72.95;14.18;;;2.30;98.20;;;;;;5160646;27;20034;-81
2022/01/12 03:54:17;;;;;;;115.38;18.05;;;2.30;98.20;;;;;;5143199;27;20049;-81
2022/01/12 03:56:43;;;;;;;141.57;18.73;;;2.30;98.30;;;;;;5143237;27;20515;-81
2022/01/12 03:59:08;;;;;;;79.10;11.55;;;2.20;98.30;;;;;;5126493;27;20122;-81
2022/01/12 04:01:37;;;;;;;128.05;17.60;;;2.20;98.30;;;;;;5143407;27;20045;-81
2022/01/12 04:04:11;;;;;;;78.85;13.18;;;2.20;98.30;;;;;;5143598;27;20070;-81
2022/01/12 04:09:21;;;;;;;107.70;14.77;;;2.20;98.30;;;;;;5160369;27;20049;-81
2022/01/12 04:11:46;;;;;;;157.70;19.75;;;2.30;98.40;;;;;;5160457;27;20038;-81
2022/01/12 04:14:13;;;;;;;116.60;12.02;;;2.30;98.40;;;;;;5142900;27;20397;-81
2022/01/12 04:16:39;;;;;;;66.97;8.52;;;2.30;98.40;;;;;;5160193;27;20106;-80
2022/01/12 04:19:05;;;;;;;56.20;6.10;;;2.30;98.40;;;;;;5160357;27;20102;-81
2022/01/12 04:21:34;;;;;;;85.30;8.85;;;2.30;98.40;;;;;;5142838;27;20122;-81
2022/01/12 04:24:00;;;;;;;76.93;7.13;;;2.30;98.40;;;;;;5126668;27;20042;-81
2022/01/12 04:26:27;;;;;;;148.77;14.45;;;2.30;98.40;;;;;;5142622;27;20102;-81
2022/01/12 04:28:53;;;;;;;186.77;13.45;;;2.30;98.50;;;;;;5142989;27;20435;-81
2022/01/12 04:31:20;;;;;;;81.72;10.25;;;2.20;98.40;;;;;;5159459;27;20038;-81
2022/01/12 04:33:46;;;;;;;120.95;9.77;;;2.30;98.50;;;;;;5142869;27;20065;-81
2022/01/12 04:36:14;;;;;;;203.85;14.25;;;2.20;98.40;;;;;;5142435;27;20041;-81
2022/01/12 04:38:41;;;;;;;160.13;13.38;;;2.10;98.40;;;;;;5142433;27;20098;-82
2022/01/12 04:41:09;;;;;;;167.95;12.20;;;2.10;98.40;;;;;;5159670;27;20049;-81
2022/01/12 04:43:37;;;;;;;96.65;7.75;;;2.10;98.40;;;;;;5159715;27;20121;-81
2022/01/12 04:48:48;;;;;;;53.75;5.65;;;2.00;98.40;;;;;;5159743;27;20076;-81
2022/01/12 04:51:14;;;;;;;56.08;6.47;;;2.00;98.50;;;;;;5159524;27;20038;-81
2022/01/12 04:53:39;;;;;;;80.07;7.53;;;2.00;98.40;;;;;;5159366;27;20082;-81
2022/01/12 04:56:05;;;;;;;30.10;5.32;;;2.00;98.40;;;;;;5124854;27;20406;-81
2022/01/12 04:58:32;;;;;;;129.45;12.27;;;2.00;98.50;;;;;;5107366;27;20031;-81
2022/01/12 05:01:05;;;;;;;98.47;10.60;;;2.10;98.50;;;;;;5142065;27;20061;-81
2022/01/12 05:07:25;;;;;;;79.28;8.80;;;2.20;98.50;;;;;;5144566;27;20486;-81
2022/01/12 05:09:47;;;;;;;161.38;14.75;;;2.20;98.50;;;;;;5124251;27;20367;-81
2022/01/12 05:15:07;;;;;;;134.65;12.65;;;2.10;98.40;;;;;;5144439;27;20049;-81
2022/01/12 05:17:34;;;;;;;110.35;10.80;;;2.00;98.30;;;;;;5143011;27;20042;-81
2022/01/12 05:20:00;;;;;;;63.55;8.15;;;1.90;98.30;;;;;;5159079;27;20035;-81
2022/01/12 05:22:25;;;;;;;79.85;8.93;;;1.90;98.40;;;;;;5124563;27;20049;-81
2022/01/12 05:24:52;;;;;;;98.22;10.45;;;1.80;98.30;;;;;;5158740;27;20030;-81
2022/01/12 05:27:18;;;;;;;45.10;8.00;;;1.80;98.30;;;;;;5141628;27;20038;-81
2022/01/12 05:29:43;;;;;;;163.15;15.38;;;1.80;98.30;;;;;;5158777;27;20035;-81
2022/01/12 05:32:10;;;;;;;173.80;15.80;;;1.80;98.30;;;;;;5158567;27;20061;-81
2022/01/12 05:34:38;;;;;;;143.32;11.80;;;1.80;98.30;;;;;;5124673;27;20473;-81
2022/01/12 05:37:04;;;;;;;99.82;10.75;;;1.70;98.20;;;;;;5141228;27;20074;-81
2022/01/12 05:39:29;;;;;;;101.57;11.32;;;1.70;98.30;;;;;;5158496;27;20118;-81
2022/01/12 05:41:55;;;;;;;139.70;15.23;;;1.70;98.30;;;;;;5140568;27;20484;-81
2022/01/12 05:44:23;;;;;;;106.10;11.93;;;1.70;98.40;;;;;;5158062;27;20026;-81
2022/01/12 05:46:49;;;;;;;100.75;11.07;;;1.70;98.40;;;;;;5141125;27;20038;-81
2022/01/12 05:51:59;;;;;;;60.88;9.13;;;1.70;98.40;;;;;;5143855;27;20056;-81
2022/01/12 05:54:24;;;;;;;74.65;11.43;;;1.80;98.40;;;;;;5158302;27;20401;-81
2022/01/12 05:56:52;;;;;;;65.35;13.18;;;1.80;98.40;;;;;;5141008;27;20042;-80
2022/01/12 05:59:18;;;;;;;39.95;13.25;;;1.80;98.40;;;;;;5140945;27;20530;-82
2022/01/12 06:01:43;;;;;;;99.95;13.02;;;1.80;98.40;;;;;;5124007;27;20042;-81
2022/01/12 06:04:09;;;;;;;177.30;14.50;;;1.80;98.40;;;;;;5123902;27;20034;-81
2022/01/12 06:06:35;;;;;;;139.13;12.25;;;1.70;98.30;;;;;;5158252;27;20103;-81
2022/01/12 06:09:01;;;;;;;202.68;15.68;;;1.70;98.30;;;;;;5157963;27;20562;-81
2022/01/12 06:11:26;;;;;;;64.88;8.93;;;1.70;98.30;;;;;;5141094;27;20088;-81
2022/01/12 06:13:52;;;;;;;133.18;14.38;;;1.60;98.30;;;;;;5123634;27;20505;-81
2022/01/12 06:16:18;;;;;;;26.30;5.20;;;1.60;98.20;;;;;;5157679;27;20046;-81
2022/01/12 06:18:44;;;;;;;65.38;8.23;;;1.60;98.30;;;;;;5140929;27;20094;-81
2022/01/12 06:21:10;;;;;;;70.10;8.27;;;1.50;98.30;;;;;;5140462;27;20485;-81
2022/01/12 06:23:36;;;;;;;29.83;6.13;;;1.50;98.30;;;;;;5157707;27;20070;-81
2022/01/12 06:26:02;;;;;;;38.33;5.00;;;1.40;98.30;;;;;;5140394;27;20079;-81
2022/01/12 06:31:11;;;;;;;90.25;8.98;;;1.50;98.30;;;;;;5124245;27;20034;-81
2022/01/12 06:33:42;;;;;;;69.22;8.60;;;1.40;98.20;;;;;;5142442;27;20054;-81
2022/01/12 06:36:09;;;;;;;85.35;10.43;;;1.40;98.20;;;;;;5140107;27;20042;-81
2022/01/12 06:38:35;;;;;;;60.55;9.70;;;1.30;98.20;;;;;;5157405;27;20034;-80
2022/01/12 06:41:01;;;;;;;87.78;12.88;;;1.30;98.20;;;;;;5123069;27;20038;-81
2022/01/12 06:43:28;;;;;;;44.45;11.35;;;1.20;98.20;;;;;;5157271;27;20031;-81
2022/01/12 06:45:55;;;;;;;41.20;5.63;;;1.20;98.10;;;;;;5157185;27;20177;-81
2022/01/12 06:48:20;;;;;;;71.07;9.13;;;1.10;98.10;;;;;;5140081;27;20042;-81
2022/01/12 06:50:46;;;;;;;78.13;8.23;;;1.10;98.10;;;;;;5140030;27;20125;-81
2022/01/12 06:53:12;;;;;;;129.02;10.07;;;1.10;98.10;;;;;;5122615;27;20049;-81
2022/01/12 06:55:37;;;;;;;62.88;6.93;;;1.10;98.10;;;;;;5139892;27;20042;-81
2022/01/12 06:58:03;;;;;;;44.97;7.28;;;1.00;98.20;;;;;;5139973;27;20034;-82
2022/01/12 07:00:29;;;;;;;91.78;10.23;;;1.10;98.20;;;;;;5157035;27;20091;-81
2022/01/12 07:02:55;;;;;;;35.45;6.07;;;1.10;98.10;;;;;;5140125;27;20030;-80
2022/01/12 07:05:20;;;;;;;82.15;8.50;;;1.00;98.10;;;;;;5139714;27;20492;-80
2022/01/12 07:07:46;;;;;;;61.33;7.40;;;1.00;98.10;;;;;;5122615;27;20121;-81
2022/01/12 07:10:12;;;;;;;25.75;6.35;;;1.00;98.20;;;;;;5139736;27;20060;-81
2022/01/12 07:12:37;;;;;;;16.00;6.28;;;1.00;98.20;;;;;;5156539;27;20097;-81
2022/01/12 07:15:04;;;;;;;41.35;7.68;;;1.00;98.20;;;;;;5156319;27;20034;-81
2022/01/12 07:17:29;;;;;;;48.95;8.23;;;1.00;98.20;;;;;;5156900;27;20046;-81
2022/01/12 07:19:55;;;;;;;41.38;8.43;;;0.90;98.20;;;;;;5156937;27;20042;-81
2022/01/12 07:22:21;;;;;;;36.35;9.65;;;0.90;98.20;;;;;;5143337;27;20042;-81
2022/01/12 07:24:47;;;;;;;61.15;12.07;;;0.90;98.20;;;;;;5146716;27;20381;-81
2022/01/12 07:27:12;;;;;;;34.38;8.93;;;0.90;98.20;;;;;;5164030;27;20482;-80
2022/01/12 07:29:41;;;;;;;31.63;7.40;;;0.90;98.20;;;;;;5164039;27;20042;-80
2022/01/12 07:32:07;;;;;;;16.95;5.97;;;0.90;98.20;;;;;;5142679;27;20095;-80
2022/01/12 07:34:32;;;;;;;45.85;17.88;;;0.80;98.20;;;;;;5159843;27;20046;-82
2022/01/12 07:36:58;;;;;;;38.40;11.77;;;0.80;98.30;;;;;;5142433;27;20091;-81
2022/01/12 07:39:24;;;;;;;42.53;13.07;;;0.70;98.20;;;;;;5142806;27;20038;-82
2022/01/12 07:41:49;;;;;;;79.35;11.63;;;0.70;98.20;;;;;;5142775;27;20030;-81
2022/01/12 07:44:15;;;;;;;60.92;18.88;;;0.70;98.20;;;;;;5142742;27;20043;-80
2022/01/12 07:46:41;;;;;;;71.15;18.38;;;0.70;98.20;;;;;;5142627;27;20461;-80
2022/01/12 07:49:07;;;;;;;67.13;12.82;;;0.70;98.30;;;;;;5160061;27;20043;-80
2022/01/12 07:51:32;;;;;;;75.97;11.55;;;0.70;98.20;;;;;;5160041;27;20121;-80
2022/01/12 07:53:58;;;;;;;97.68;11.88;;;0.70;98.30;;;;;;5142985;27;20042;-80
2022/01/12 07:56:24;;;;;;;45.83;7.22;;;0.70;98.30;;;;;;5159854;27;20517;-80
2022/01/12 07:58:49;;;;;;;126.43;13.07;;;0.80;98.30;;;;;;5125557;27;20039;-80
2022/01/12 08:01:15;;;;;;;47.40;9.48;;;0.80;98.20;;;;;;5142947;27;20099;-80
2022/01/12 08:03:41;;;;;;;49.88;11.80;;;0.80;98.20;;;;;;5142858;27;20050;-80
2022/01/12 08:06:06;;;;;;;69.50;8.93;;;0.90;98.20;;;;;;5142695;27;20381;-79
2022/01/12 08:08:33;;;;;;;79.05;9.73;;;0.80;98.20;;;;;;5160041;27;20040;-79
2022/01/12 08:10:59;;;;;;;81.00;11.98;;;0.90;98.20;;;;;;5159581;27;20054;-79
2022/01/12 08:13:24;;;;;;;91.18;10.95;;;0.80;98.20;;;;;;5160255;27;20121;-79
2022/01/12 08:15:50;;;;;;;55.92;8.68;;;0.90;98.20;;;;;;5142320;27;20038;-80
2022/01/12 08:18:16;;;;;;;98.38;12.68;;;0.90;98.20;;;;;;5142485;27;20064;-80
2022/01/12 08:20:42;;;;;;;104.03;13.68;;;0.90;98.20;;;;;;5142532;27;20035;-80
2022/01/12 08:23:08;;;;;;;42.17;9.10;;;0.90;98.20;;;;;;5159541;27;20050;-80
2022/01/12 08:25:37;;;;;;;54.22;9.10;;;0.90;98.20;;;;;;5160166;27;20039;-80
2022/01/12 08:28:05;;;;;;;63.53;11.02;;;0.90;98.20;;;;;;5125804;27;20038;-80
2022/01/12 08:30:32;;;;;;;33.53;7.90;;;0.90;98.20;;;;;;5159911;27;20073;-81
2022/01/12 08:32:58;;;;;;;56.72;10.98;;;0.90;98.20;;;;;;5158154;27;20050;-80
2022/01/12 08:35:24;;;;;;;43.35;10.80;;;0.90;98.10;;;;;;5138427;27;20091;-79
2022/01/12 08:37:50;;;;;;;60.08;12.60;;;0.90;98.20;;;;;;5156589;27;20035;-81
2022/01/12 08:40:17;;;;;;;36.90;8.75;;;0.90;98.20;;;;;;5139037;27;20030;-80
2022/01/12 08:42:43;;;;;;;58.25;9.43;;;0.90;98.10;;;;;;5139175;27;20505;-79
2022/01/12 08:45:10;;;;;;;22.63;5.72;;;1.00;98.10;;;;;;5156089;27;20091;-80
2022/01/12 08:47:36;;;;;;;76.57;11.00;;;1.00;98.20;;;;;;5156209;27;20043;-79
2022/01/12 08:50:03;;;;;;;36.55;9.20;;;1.00;98.20;;;;;;5138708;27;20091;-79
2022/01/12 08:52:30;;;;;;;36.30;6.70;;;1.00;98.20;;;;;;5156091;27;20045;-79
2022/01/12 08:54:57;;;;;;;98.82;12.85;;;1.10;98.20;;;;;;5121826;27;20538;-80
2022/01/12 08:57:23;;;;;;;97.63;9.40;;;1.10;98.10;;;;;;5155879;27;20122;-79
2022/01/12 08:59:48;;;;;;;98.72;10.70;;;1.10;98.20;;;;;;5156189;27;20078;-78
2022/01/12 09:02:15;;;;;;;88.80;10.00;;;1.10;98.20;;;;;;5156018;27;20606;-80
2022/01/12 09:04:44;;;;;;;46.08;8.32;;;1.10;98.30;;;;;;5138366;27;20090;-79
2022/01/12 09:07:10;;;;;;;55.58;8.50;;;1.10;98.30;;;;;;5156064;27;20398;-80
2022/01/12 09:09:36;;;;;;;63.47;9.32;;;1.20;98.30;;;;;;5138791;27;20082;-79
2022/01/12 09:12:04;;;;;;;78.00;9.88;;;1.20;98.20;;;;;;5155367;27;20126;-80
2022/01/12 09:14:30;;;;;;;88.40;10.98;;;1.40;98.20;;;;;;5155766;27;20046;-79
2022/01/12 09:16:58;;;;;;;85.13;11.35;;;1.30;98.20;;;;;;5155508;27;20041;-79
2022/01/12 09:19:25;;;;;;;24.13;8.55;;;1.40;98.20;;;;;;5155525;27;20508;-80
2022/01/12 09:21:51;;;;;;;86.75;14.95;;;1.40;98.20;;;;;;5138451;27;20045;-79
2022/01/12 09:24:18;;;;;;;64.38;10.02;;;1.40;98.30;;;;;;5155633;27;20104;-79
2022/01/12 09:26:44;;;;;;;73.15;10.80;;;1.50;98.30;;;;;;5155605;27;20042;-80
2022/01/12 09:29:10;;;;;;;54.42;11.32;;;1.50;98.40;;;;;;5137808;27;20117;-80
2022/01/12 09:31:35;;;;;;;88.70;11.75;;;1.60;98.30;;;;;;5137945;27;20089;-80
2022/01/12 09:34:05;;;;;;;38.53;6.35;;;1.60;98.40;;;;;;5137916;27;20054;-80
2022/01/12 09:36:31;;;;;;;29.30;7.53;;;1.60;98.30;;;;;;5137868;27;20459;-81
2022/01/12 09:38:58;;;;;;;50.80;8.55;;;1.60;98.30;;;;;;5155003;27;20038;-80
2022/01/12 09:41:25;;;;;;;68.68;7.82;;;1.60;98.30;;;;;;5138024;27;20645;-80
2022/01/12 09:43:52;;;;;;;82.05;11.18;;;1.60;98.30;;;;;;5137736;27;20030;-81
2022/01/12 09:46:19;;;;;;;47.35;8.77;;;1.60;98.40;;;;;;5120513;27;20042;-81
2022/01/12 09:48:45;;;;;;;43.67;9.10;;;1.70;98.40;;;;;;5155075;27;20098;-81
2022/01/12 09:51:11;;;;;;;37.15;7.53;;;1.70;98.40;;;;;;5155278;27;20435;-80
2022/01/12 09:53:38;;;;;;;28.80;7.20;;;1.80;98.40;;;;;;5154746;27;20043;-81
2022/01/12 09:56:21;;;;;;;67.05;11.63;;;1.80;98.40;;;;;;5137672;27;20489;-82
2022/01/12 09:58:47;;;;;;;94.22;11.95;;;1.70;98.40;;;;;;5137511;27;20073;-80
2022/01/12 10:01:48;;;;;;;46.75;10.60;;;1.80;98.30;;;;;;5137590;27;20484;-81
2022/01/12 10:04:18;;;;;;;56.97;12.40;;;1.80;98.40;;;;;;5150846;27;20102;-81
2022/01/12 10:06:53;;;;;;;43.35;7.40;;;1.90;98.40;;;;;;5154490;27;20042;-81
2022/01/12 10:09:33;;;;;;;70.22;8.88;;;1.90;98.50;;;;;;5137232;27;20054;-81
2022/01/12 10:12:01;;;;;;;80.95;9.38;;;2.00;98.60;;;;;;5154900;27;20478;-82
2022/01/12 10:14:45;;;;;;;38.35;6.82;;;2.00;98.50;;;;;;5154718;27;20399;-80
2022/01/12 10:17:12;;;;;;;53.20;8.05;;;2.10;98.50;;;;;;5154402;27;20039;-80
2022/01/12 10:19:39;;;;;;;44.33;8.05;;;2.10;98.50;;;;;;5137331;27;20042;-80
2022/01/12 10:22:07;;;;;;;37.80;6.93;;;2.10;98.50;;;;;;5154258;27;20039;-80
2022/01/12 10:24:41;;;;;;;63.20;9.40;;;2.10;98.50;;;;;;5136915;27;20172;-80
2022/01/12 10:27:18;;;;;;;85.75;12.52;;;2.20;98.40;;;;;;5154448;27;20125;-80
2022/01/12 10:29:46;;;;;;;59.10;9.50;;;2.30;98.50;;;;;;5154069;27;20034;-81
2022/01/12 10:32:17;;;;;;;61.60;10.32;;;2.40;98.70;;;;;;5154053;27;20113;-79
2022/01/12 10:34:45;;;;;;;30.95;8.20;;;2.40;98.80;;;;;;5154021;27;20513;-81
2022/01/12 10:37:16;;;;;;;18.02;7.57;;;2.60;98.60;;;;;;5136367;27;20072;-82
2022/01/12 10:39:45;;;;;;;17.95;7.50;;;2.60;98.60;;;;;;5153971;27;20034;-82
2022/01/12 10:42:17;;;;;;;21.83;8.55;;;2.80;98.60;;;;;;5153979;27;20049;-81
2022/01/12 10:44:49;;;;;;;14.80;6.90;;;2.90;98.50;;;;;;5154087;27;20363;-81
2022/01/12 10:47:29;;;;;;;15.10;6.65;;;3.10;98.80;;;;;;5136813;27;20166;-78
2022/01/12 10:49:55;;;;;;;16.63;7.55;;;3.20;98.90;;;;;;5153805;27;20042;-79
2022/01/12 10:52:30;;;;;;;13.48;6.82;;;3.40;98.70;;;;;;5153767;27;20042;-81
2022/01/12 10:55:05;;;;;;;20.35;7.65;;;3.50;98.70;;;;;;5136471;27;20038;-81
2022/01/12 10:57:33;;;;;;;15.88;7.43;;;3.60;98.70;;;;;;5134956;27;20088;-80
2022/01/12 11:00:22;;;;;;;17.90;7.32;;;3.80;98.40;;;;;;5134728;27;20106;-80
2022/01/12 11:03:00;;;;;;;14.30;7.72;;;4.10;98.90;;;;;;5152496;27;20035;-81
2022/01/12 11:05:28;;;;;;;16.23;7.20;;;4.20;98.80;;;;;;5152186;27;20046;-81
2022/01/12 11:07:54;;;;;;;15.48;6.78;;;4.40;98.60;;;;;;5152645;27;20394;-80
2022/01/12 11:10:21;;;;;;;17.20;6.72;;;4.60;98.60;;;;;;5134760;27;20074;-81
2022/01/12 11:12:49;;;;;;;17.95;8.02;;;4.70;98.50;;;;;;5151547;27;20487;-80
2022/01/12 11:15:16;;;;;;;19.45;6.82;;;4.80;98.70;;;;;;5151584;27;20060;-81
2022/01/12 11:17:47;;;;;;;19.88;7.45;;;5.00;98.50;;;;;;5134641;27;20121;-81
2022/01/12 11:20:25;;;;;;;21.63;7.90;;;5.10;98.50;;;;;;5151895;27;20034;-80
2022/01/12 11:22:56;;;;;;;26.50;6.68;;;5.30;98.20;;;;;;5152937;27;20082;-80
2022/01/12 11:25:34;;;;;;;27.63;8.25;;;5.50;98.10;;;;;;5152987;27;20533;-80
2022/01/12 11:28:07;;;;;;;28.98;6.75;;;5.60;98.00;;;;;;5135940;27;20046;-82
2022/01/12 11:30:33;;;;;;;31.40;7.18;;;5.80;98.00;;;;;;5153148;27;20039;-81
2022/01/12 11:33:01;;;;;;;25.77;6.75;;;5.90;97.80;;;;;;5152988;27;20061;-81
2022/01/12 11:35:36;;;;;;;27.02;6.57;;;6.10;97.70;;;;;;5135736;27;20043;-82
2022/01/12 11:38:06;;;;;;;20.38;6.40;;;6.20;97.60;;;;;;5152874;27;20482;-83
2022/01/12 11:40:42;;;;;;;24.63;7.80;;;6.40;97.60;;;;;;5136538;27;20042;-81
2022/01/12 11:43:22;;;;;;;19.65;5.43;;;6.50;97.50;;;;;;5153055;27;20116;-83
2022/01/12 11:46:04;;;;;;;22.42;7.35;;;6.60;97.50;;;;;;5135875;27;20043;-81
2022/01/12 11:48:32;;;;;;;18.92;5.40;;;6.70;97.60;;;;;;5153011;27;20043;-83
2022/01/12 11:50:57;;;;;;;22.42;6.90;;;6.90;97.40;;;;;;5117740;27;20035;-82
2022/01/12 11:53:23;;;;;;;22.77;6.50;;;7.00;97.30;;;;;;5135793;27;20045;-82
2022/01/12 11:55:49;;;;;;;23.63;6.65;;;7.00;97.10;;;;;;5135621;27;20043;-82
2022/01/12 11:58:19;;;;;;;26.58;6.32;;;7.10;96.90;;;;;;5153127;27;20038;-82
2022/01/12 12:00:45;;;;;;;20.83;6.60;;;7.20;96.80;;;;;;5135935;27;20046;-83
2022/01/12 12:03:21;;;;;;;25.63;6.07;;;7.30;96.70;;;;;;5135462;27;20038;-84
2022/01/12 12:05:48;;;;;;;19.00;5.60;;;7.40;96.50;;;;;;5136460;27;20046;-83
2022/01/12 12:08:24;;;;;;;21.30;6.55;;;7.50;96.40;;;;;;5120724;27;20042;-82
2022/01/12 12:10:52;;;;;;;21.33;5.45;;;7.70;96.30;;;;;;5157239;27;20397;-83
2022/01/12 12:13:21;;;;;;;19.95;7.07;;;7.80;96.10;;;;;;5157038;27;20042;-82
2022/01/12 12:15:47;;;;;;;15.93;6.38;;;7.90;95.70;;;;;;5139439;27;20081;-83
2022/01/12 12:18:16;;;;;;;16.13;6.22;;;7.90;95.30;;;;;;5156749;27;20066;-82
2022/01/12 12:20:41;;;;;;;23.48;6.50;;;8.00;95.10;;;;;;5156632;27;20035;-81
2022/01/12 12:23:07;;;;;;;18.42;6.20;;;8.10;94.70;;;;;;5115851;27;20127;-81
2022/01/12 12:25:34;;;;;;;17.35;6.13;;;8.20;94.50;;;;;;5097028;27;20160;-79
2022/01/12 12:28:13;;;;;;;17.85;5.50;;;8.30;94.00;;;;;;5112735;27;20043;-82
2022/01/12 12:30:39;;;;;;;26.73;6.95;;;8.40;93.80;;;;;;5130227;27;20163;-82
2022/01/12 12:33:08;;;;;;;14.13;6.25;;;8.50;93.50;;;;;;5145804;27;20136;-84
2022/01/12 12:35:35;;;;;;;14.60;5.22;;;8.50;93.40;;;;;;5133138;27;20072;-82
2022/01/12 12:38:01;;;;;;;20.27;5.65;;;8.70;93.10;;;;;;5133227;27;20046;-82
2022/01/12 12:40:33;;;;;;;21.75;6.13;;;8.80;92.70;;;;;;5150582;27;20095;-82
2022/01/12 12:43:03;;;;;;;15.80;4.80;;;8.90;92.90;;;;;;5131126;27;20042;-82
2022/01/12 12:45:48;;;;;;;17.45;4.93;;;9.00;92.50;;;;;;5150346;27;20038;-82
2022/01/12 12:48:19;;;;;;;13.45;4.80;;;9.10;91.80;;;;;;5150249;27;20107;-83
2022/01/12 12:50:46;;;;;;;17.00;5.65;;;9.30;92.00;;;;;;5133545;27;20054;-83
2022/01/12 12:53:12;;;;;;;14.38;5.50;;;9.40;91.20;;;;;;5149106;27;20047;-81
2022/01/12 12:55:41;;;;;;;14.90;5.20;;;9.50;90.90;;;;;;5150106;27;20042;-81
2022/01/12 12:58:08;;;;;;;16.50;6.30;;;9.70;91.10;;;;;;5150015;27;20034;-80
2022/01/12 13:00:35;;;;;;;17.42;5.70;;;9.70;89.80;;;;;;5150414;27;20046;-81
2022/01/12 13:03:03;;;;;;;15.77;5.63;;;9.70;89.50;;;;;;5131680;27;20547;-80
2022/01/12 13:05:43;;;;;;;14.20;5.15;;;9.70;89.20;;;;;;5132362;27;20043;-80
2022/01/12 13:08:10;;;;;;;20.38;6.05;;;9.70;88.40;;;;;;5132471;27;20051;-80
2022/01/12 13:10:37;;;;;;;16.08;5.95;;;9.80;88.60;;;;;;5149980;27;20034;-79
2022/01/12 13:13:09;;;;;;;14.98;4.82;;;9.80;88.30;;;;;;5147968;27;20050;-80
2022/01/12 13:15:37;;;;;;;19.27;4.90;;;9.80;88.10;;;;;;5150191;27;20078;-80
2022/01/12 13:18:05;;;;;;;15.80;4.43;;;9.80;87.20;;;;;;5149354;27;20067;-80
2022/01/12 13:23:19;;;;;;;14.43;4.70;;;9.90;86.80;;;;;;5149011;27;20784;-79
2022/01/12 13:25:45;;;;;;;20.75;5.28;;;9.80;86.10;;;;;;5149806;27;20050;-80
2022/01/12 13:28:10;;;;;;;15.48;4.28;;;9.80;85.80;;;;;;5151316;27;20047;-80
2022/01/12 13:30:47;;;;;;;14.05;4.40;;;9.80;86.00;;;;;;5155284;27;20035;-80
2022/01/12 13:33:13;;;;;;;17.05;4.15;;;9.90;85.90;;;;;;5137687;27;20110;-81
2022/01/12 13:35:41;;;;;;;14.15;4.57;;;9.90;85.30;;;;;;5155206;27;20623;-80
2022/01/12 13:38:07;;;;;;;18.27;5.32;;;10.00;85.40;;;;;;5155301;27;20386;-81
2022/01/12 13:40:36;;;;;;;21.58;5.25;;;10.10;85.60;;;;;;5138150;27;20042;-82
2022/01/12 13:43:02;;;;;;;14.25;4.30;;;10.10;85.30;;;;;;5138027;27;20038;-81
2022/01/12 13:45:43;;;;;;;13.10;4.20;;;10.20;84.50;;;;;;5120544;27;20048;-81
2022/01/12 13:48:18;;;;;;;11.13;3.53;;;10.20;84.30;;;;;;5154680;27;20074;-83
2022/01/12 13:50:45;;;;;;;;;;;10.30;84.10;;;;;;5155746;27;20134;-84
2022/01/12 13:53:11;;;;;;;15.27;3.90;;;10.20;83.70;;;;;;5155048;27;20134;-83
2022/01/12 13:55:48;;;;;;;16.92;4.35;;;10.40;84.60;;;;;;5137350;27;20121;-85
2022/01/12 13:58:14;;;;;;;16.45;4.28;;;10.40;83.30;;;;;;5137723;27;20041;-83
2022/01/12 14:00:40;;;;;;;14.10;4.30;;;10.40;83.70;;;;;;5137838;27;20039;-83
2022/01/12 14:03:26;;;;;;;18.27;4.50;;;10.40;83.00;;;;;;5137546;27;20398;-84
2022/01/12 14:05:58;;;;;;;13.32;4.30;;;10.40;83.30;;;;;;5137168;27;20129;-84